Time;durP1;ratioP1;P1;durP2;ratioP2;P2;SDS_P1;SDS_P2;PMS_P1;PMS_P2;Temp;Humidity;BMP_temperature;BMP_pressure;BME280_temperature;BME280_humidity;BME280_pressure;Samples;Min_cycle;Max_cycle;Signal;HPM_P1;HPM_P2
2021/12/23 00:01:38;;;;;;;91.83;41.27;;;;;;;;;;5096007;28;20284;-77
2021/12/23 00:04:06;;;;;;;89.93;40.10;;;;;;;;;;5096004;28;20240;-74
2021/12/23 00:06:34;;;;;;;79.77;36.07;;;;;;;;;;5096015;28;20602;-74
2021/12/23 00:09:03;;;;;;;90.03;35.43;;;;;;;;;;5095664;28;20225;-75
2021/12/23 00:11:32;;;;;;;127.57;46.67;;;;;;;;;;5094542;28;20199;-73
2021/12/23 00:14:05;;;;;;;89.17;34.53;;;;;;;;;;5095562;28;20210;-75
2021/12/23 00:19:48;;;;;;;84.23;32.27;;;;;;;;;;5095912;28;20199;-76
2021/12/23 00:24:46;;;;;;;80.47;30.40;;;;;;;;;;5094240;28;20627;-76
2021/12/23 00:27:14;;;;;;;95.33;46.43;;;;;;;;;;5095314;28;20729;-75
2021/12/23 00:29:41;;;;;;;182.67;66.70;;;;;;;;;;5086492;28;20298;-76
2021/12/23 00:32:09;;;;;;;189.93;62.83;;;;;;;;;;5074982;28;20665;-76
2021/12/23 00:34:38;;;;;;;85.43;33.23;;;;;;;;;;5073739;28;20223;-72
2021/12/23 00:37:09;;;;;;;66.63;28.20;;;;;;;;;;5075116;28;20217;-75
2021/12/23 00:39:36;;;;;;;62.10;28.87;;;;;;;;;;5107777;28;20205;-75
2021/12/23 00:42:08;;;;;;;83.97;34.23;;;;;;;;;;5074787;28;20210;-76
2021/12/23 00:44:39;;;;;;;99.27;36.37;;;;;;;;;;5074721;28;20766;-76
2021/12/23 00:47:07;;;;;;;114.07;42.93;;;;;;;;;;5074960;28;20202;-75
2021/12/23 00:49:34;;;;;;;126.93;51.87;;;;;;;;;;5073484;28;20302;-74
2021/12/23 00:52:03;;;;;;;455.23;126.27;;;;;;;;;;5074067;28;20246;-74
2021/12/23 00:54:30;;;;;;;105.13;39.67;;;;;;;;;;5074805;28;20297;-76
2021/12/23 00:56:58;;;;;;;112.57;51.40;;;;;;;;;;5074746;28;20261;-75
2021/12/23 00:59:25;;;;;;;117.67;48.17;;;;;;;;;;5074696;28;20298;-76
2021/12/23 01:01:52;;;;;;;129.73;46.00;;;;;;;;;;5074748;28;20223;-75
2021/12/23 01:04:23;;;;;;;117.33;47.90;;;;;;;;;;5073438;28;20251;-76
2021/12/23 01:06:50;;;;;;;102.80;40.13;;;;;;;;;;5074459;28;20207;-74
2021/12/23 01:09:18;;;;;;;88.23;35.30;;;;;;;;;;5074716;28;20203;-75
2021/12/23 01:11:45;;;;;;;106.87;39.60;;;;;;;;;;5074575;28;20302;-76
2021/12/23 01:19:36;;;;;;;480.60;123.17;;;;;;;;;;5074522;28;20196;-74
2021/12/23 01:22:04;;;;;;;191.00;61.00;;;;;;;;;;5074284;28;20253;-73
2021/12/23 01:24:33;;;;;;;129.27;51.83;;;;;;;;;;5074145;28;20227;-74
2021/12/23 01:27:01;;;;;;;95.90;40.43;;;;;;;;;;5074284;28;20215;-71
2021/12/23 01:29:29;;;;;;;112.70;44.00;;;;;;;;;;5085595;28;20653;-73
2021/12/23 01:31:56;;;;;;;108.73;44.53;;;;;;;;;;5094508;28;20286;-74
2021/12/23 01:34:23;;;;;;;105.47;41.53;;;;;;;;;;5094316;28;20613;-74
2021/12/23 01:36:50;;;;;;;124.47;49.80;;;;;;;;;;5094305;28;20213;-74
2021/12/23 01:39:18;;;;;;;127.23;48.93;;;;;;;;;;5094217;28;20214;-74
2021/12/23 01:41:45;;;;;;;124.20;45.93;;;;;;;;;;5094391;28;20214;-75
2021/12/23 01:44:12;;;;;;;144.57;57.67;;;;;;;;;;5094115;28;20246;-74
2021/12/23 01:46:39;;;;;;;191.43;64.47;;;;;;;;;;5094400;28;20240;-75
2021/12/23 01:49:07;;;;;;;113.20;47.83;;;;;;;;;;5094281;28;20331;-74
2021/12/23 01:51:36;;;;;;;132.23;54.67;;;;;;;;;;5094296;28;20202;-74
2021/12/23 01:54:03;;;;;;;108.33;42.47;;;;;;;;;;5093104;28;20211;-74
2021/12/23 01:56:31;;;;;;;128.10;46.17;;;;;;;;;;5094185;28;20238;-75
2021/12/23 01:58:58;;;;;;;100.83;42.67;;;;;;;;;;5092948;28;20602;-74
2021/12/23 02:01:25;;;;;;;118.93;47.17;;;;;;;;;;5094070;28;20206;-74
2021/12/23 02:03:53;;;;;;;131.90;49.30;;;;;;;;;;5094193;28;20242;-74
2021/12/23 02:06:21;;;;;;;121.17;48.07;;;;;;;;;;5097937;28;20705;-74
2021/12/23 02:08:48;;;;;;;112.83;44.23;;;;;;;;;;5098241;28;20237;-75
2021/12/23 02:11:15;;;;;;;154.43;55.90;;;;;;;;;;5098216;28;20217;-74
2021/12/23 02:13:42;;;;;;;122.70;49.47;;;;;;;;;;5096947;28;20550;-74
2021/12/23 02:16:10;;;;;;;106.20;46.07;;;;;;;;;;5098195;28;20260;-74
2021/12/23 02:18:37;;;;;;;100.77;42.97;;;;;;;;;;5097919;28;20233;-74
2021/12/23 02:21:05;;;;;;;103.67;47.20;;;;;;;;;;5098058;28;20267;-74
2021/12/23 02:23:33;;;;;;;105.77;47.03;;;;;;;;;;5097979;28;20206;-74
2021/12/23 02:26:00;;;;;;;107.90;45.13;;;;;;;;;;5097853;28;20292;-75
2021/12/23 02:28:28;;;;;;;100.80;41.60;;;;;;;;;;5096845;28;20214;-75
2021/12/23 02:30:55;;;;;;;112.10;46.80;;;;;;;;;;5096536;28;20217;-74
2021/12/23 02:33:25;;;;;;;96.30;41.60;;;;;;;;;;5097778;28;20256;-75
2021/12/23 02:35:55;;;;;;;92.63;39.90;;;;;;;;;;5097754;28;20203;-75
2021/12/23 02:38:23;;;;;;;172.47;62.77;;;;;;;;;;5097367;28;20659;-75
2021/12/23 02:40:50;;;;;;;111.97;47.90;;;;;;;;;;5097692;28;20210;-76
2021/12/23 02:43:22;;;;;;;243.80;72.00;;;;;;;;;;5097074;28;20238;-74
2021/12/23 02:45:52;;;;;;;96.20;40.57;;;;;;;;;;5096366;28;20326;-75
2021/12/23 02:48:22;;;;;;;109.30;46.10;;;;;;;;;;5097480;28;20206;-75
2021/12/23 02:50:52;;;;;;;103.33;42.80;;;;;;;;;;5097545;28;20672;-75
2021/12/23 02:53:19;;;;;;;103.70;42.63;;;;;;;;;;5097118;28;20312;-75
2021/12/23 02:55:47;;;;;;;94.40;40.03;;;;;;;;;;5097430;28;20210;-75
2021/12/23 02:58:14;;;;;;;90.33;39.43;;;;;;;;;;5096048;28;20297;-75
2021/12/23 03:00:43;;;;;;;100.13;39.57;;;;;;;;;;5097257;28;20210;-75
2021/12/23 03:03:11;;;;;;;98.17;40.93;;;;;;;;;;5095761;28;20295;-74
2021/12/23 03:05:38;;;;;;;115.17;48.17;;;;;;;;;;5096914;28;20245;-75
2021/12/23 03:08:06;;;;;;;124.77;53.03;;;;;;;;;;5096865;28;20604;-76
2021/12/23 03:10:33;;;;;;;139.90;49.57;;;;;;;;;;5096947;28;20207;-76
2021/12/23 03:13:01;;;;;;;120.80;46.97;;;;;;;;;;5096863;28;20737;-76
2021/12/23 03:15:28;;;;;;;97.27;43.73;;;;;;;;;;5096384;28;20211;-76
2021/12/23 03:17:55;;;;;;;114.43;45.87;;;;;;;;;;5097297;28;20214;-76
2021/12/23 03:20:22;;;;;;;118.67;47.87;;;;;;;;;;5096884;28;20329;-76
2021/12/23 03:22:50;;;;;;;120.10;50.07;;;;;;;;;;5096484;28;20532;-74
2021/12/23 03:25:17;;;;;;;111.53;47.17;;;;;;;;;;5096695;28;20242;-75
2021/12/23 03:27:45;;;;;;;106.93;47.87;;;;;;;;;;5096436;28;20618;-74
2021/12/23 03:30:12;;;;;;;115.07;48.87;;;;;;;;;;5096451;28;20329;-75
2021/12/23 03:32:39;;;;;;;122.20;50.03;;;;;;;;;;5096506;28;20214;-75
2021/12/23 03:35:07;;;;;;;151.80;62.57;;;;;;;;;;5095106;28;20269;-75
2021/12/23 03:37:34;;;;;;;127.00;54.80;;;;;;;;;;5095102;28;20233;-75
2021/12/23 03:40:03;;;;;;;152.93;59.77;;;;;;;;;;5096324;28;20613;-74
2021/12/23 03:42:31;;;;;;;123.37;53.30;;;;;;;;;;5094965;28;20250;-75
2021/12/23 03:44:58;;;;;;;142.27;58.40;;;;;;;;;;5096215;28;20215;-74
2021/12/23 03:47:26;;;;;;;146.53;58.27;;;;;;;;;;5096386;28;20210;-75
2021/12/23 03:49:53;;;;;;;125.60;53.40;;;;;;;;;;5096279;28;20207;-75
2021/12/23 03:52:20;;;;;;;131.80;53.27;;;;;;;;;;5095943;28;20685;-74
2021/12/23 03:54:47;;;;;;;130.00;52.90;;;;;;;;;;5095958;28;20704;-75
2021/12/23 03:57:15;;;;;;;135.63;54.50;;;;;;;;;;5096065;28;20241;-75
2021/12/23 03:59:42;;;;;;;136.73;57.90;;;;;;;;;;5096137;28;20221;-75
2021/12/23 04:02:10;;;;;;;145.53;58.97;;;;;;;;;;5094821;28;20207;-75
2021/12/23 04:04:38;;;;;;;159.00;67.50;;;;;;;;;;5095709;28;20206;-73
2021/12/23 04:07:05;;;;;;;143.03;56.83;;;;;;;;;;5095779;28;20656;-75
2021/12/23 04:09:32;;;;;;;150.40;58.63;;;;;;;;;;5094926;28;20210;-75
2021/12/23 04:12:00;;;;;;;128.03;54.33;;;;;;;;;;5095657;28;20215;-75
2021/12/23 04:14:27;;;;;;;137.63;57.93;;;;;;;;;;5095867;28;20670;-75
2021/12/23 04:16:55;;;;;;;148.30;62.83;;;;;;;;;;5095510;28;20574;-74
2021/12/23 04:19:27;;;;;;;134.70;58.20;;;;;;;;;;5095544;28;20218;-73
2021/12/23 04:21:55;;;;;;;134.20;54.40;;;;;;;;;;5095493;28;20737;-74
2021/12/23 04:24:22;;;;;;;128.70;55.20;;;;;;;;;;5095465;28;20220;-73
2021/12/23 04:26:50;;;;;;;138.87;60.13;;;;;;;;;;5094670;28;20234;-74
2021/12/23 04:29:17;;;;;;;137.67;58.07;;;;;;;;;;5095252;28;20211;-73
2021/12/23 04:31:45;;;;;;;124.00;56.17;;;;;;;;;;5095543;28;20210;-73
2021/12/23 04:34:12;;;;;;;134.53;57.80;;;;;;;;;;5095485;28;20611;-75
2021/12/23 04:36:39;;;;;;;162.60;62.57;;;;;;;;;;5095456;28;20249;-75
2021/12/23 04:39:07;;;;;;;135.90;54.03;;;;;;;;;;5095438;28;20191;-73
2021/12/23 04:41:35;;;;;;;132.87;54.17;;;;;;;;;;5095152;28;20213;-72
2021/12/23 04:44:02;;;;;;;141.60;57.43;;;;;;;;;;5094786;28;20254;-73
2021/12/23 04:46:29;;;;;;;136.07;57.43;;;;;;;;;;5095159;28;20238;-72
2021/12/23 04:48:56;;;;;;;113.97;48.63;;;;;;;;;;5095221;28;20264;-72
2021/12/23 04:51:24;;;;;;;135.73;58.80;;;;;;;;;;5094864;28;20215;-71
2021/12/23 04:53:52;;;;;;;133.67;56.67;;;;;;;;;;5095100;28;20214;-71
2021/12/23 04:56:19;;;;;;;136.37;58.17;;;;;;;;;;5094792;28;20214;-72
2021/12/23 04:58:46;;;;;;;133.60;56.90;;;;;;;;;;5088588;28;20234;-73
2021/12/23 05:01:21;;;;;;;128.93;56.00;;;;;;;;;;5091764;28;20235;-73
2021/12/23 05:03:49;;;;;;;135.73;55.80;;;;;;;;;;5089943;28;20230;-71
2021/12/23 05:06:19;;;;;;;135.87;58.60;;;;;;;;;;5092118;28;20237;-73
2021/12/23 05:08:48;;;;;;;183.03;69.33;;;;;;;;;;5087614;28;20227;-70
2021/12/23 05:11:17;;;;;;;132.30;56.63;;;;;;;;;;5092973;28;20238;-73
2021/12/23 05:13:47;;;;;;;170.20;64.13;;;;;;;;;;5090744;28;20705;-73
2021/12/23 05:16:16;;;;;;;128.77;56.70;;;;;;;;;;5086850;28;20227;-73
2021/12/23 05:18:44;;;;;;;145.97;60.17;;;;;;;;;;5092593;28;20704;-73
2021/12/23 05:21:12;;;;;;;331.10;179.13;;;;;;;;;;5093331;28;20234;-73
2021/12/23 05:23:39;;;;;;;423.80;204.63;;;;;;;;;;5093422;28;20590;-73
2021/12/23 05:26:08;;;;;;;979.57;500.33;;;;;;;;;;5093214;28;20713;-73
2021/12/23 05:28:36;;;;;;;776.67;412.43;;;;;;;;;;5092629;28;20264;-71
2021/12/23 05:31:03;;;;;;;723.00;399.27;;;;;;;;;;5079721;28;20275;-73
2021/12/23 05:33:31;;;;;;;621.07;357.77;;;;;;;;;;5073348;28;20297;-71
2021/12/23 05:35:59;;;;;;;767.43;419.70;;;;;;;;;;5075767;28;20712;-72
2021/12/23 05:38:26;;;;;;;670.47;386.50;;;;;;;;;;5093515;28;20234;-72
2021/12/23 05:40:53;;;;;;;516.83;220.60;;;;;;;;;;5093024;28;20601;-72
2021/12/23 05:43:21;;;;;;;268.97;90.37;;;;;;;;;;5092576;28;20245;-72
2021/12/23 05:45:48;;;;;;;251.20;85.90;;;;;;;;;;5093217;28;20242;-71
2021/12/23 05:48:16;;;;;;;174.70;76.17;;;;;;;;;;5093207;28;20241;-71
2021/12/23 05:50:43;;;;;;;207.47;104.03;;;;;;;;;;5093320;28;20234;-70
2021/12/23 05:53:10;;;;;;;254.50;87.47;;;;;;;;;;5093534;28;20239;-70
2021/12/23 05:55:38;;;;;;;181.60;67.77;;;;;;;;;;5094187;28;20211;-71
2021/12/23 05:58:05;;;;;;;179.17;65.33;;;;;;;;;;5094061;28;20226;-72
2021/12/23 06:00:33;;;;;;;172.40;65.70;;;;;;;;;;5093811;28;20214;-72
2021/12/23 06:03:01;;;;;;;122.50;54.27;;;;;;;;;;5093814;28;20215;-71
2021/12/23 06:05:29;;;;;;;143.30;67.97;;;;;;;;;;5092196;28;20245;-72
2021/12/23 06:07:57;;;;;;;248.27;76.77;;;;;;;;;;5093666;28;20203;-72
2021/12/23 06:10:24;;;;;;;158.90;64.00;;;;;;;;;;5092306;28;20218;-72
2021/12/23 06:12:51;;;;;;;154.13;65.97;;;;;;;;;;5093803;28;20217;-72
2021/12/23 06:15:18;;;;;;;152.10;60.40;;;;;;;;;;5087457;28;20221;-71
2021/12/23 06:17:46;;;;;;;143.37;56.97;;;;;;;;;;5092154;28;20239;-69
2021/12/23 06:20:14;;;;;;;126.53;59.70;;;;;;;;;;5090524;28;20234;-68
2021/12/23 06:22:42;;;;;;;138.37;66.70;;;;;;;;;;5091142;28;20726;-71
2021/12/23 06:25:10;;;;;;;170.00;60.07;;;;;;;;;;5090662;28;20239;-71
2021/12/23 06:27:39;;;;;;;122.93;50.90;;;;;;;;;;5089787;28;20318;-70
2021/12/23 06:30:19;;;;;;;133.80;55.03;;;;;;;;;;5090625;28;20237;-72
2021/12/23 06:32:54;;;;;;;147.73;60.93;;;;;;;;;;5089504;28;20319;-71
2021/12/23 06:35:24;;;;;;;150.50;58.70;;;;;;;;;;5089700;28;20244;-71
2021/12/23 06:37:51;;;;;;;168.03;62.93;;;;;;;;;;5091067;28;20219;-72
2021/12/23 06:40:19;;;;;;;132.60;55.33;;;;;;;;;;5090849;28;20719;-72
2021/12/23 06:42:47;;;;;;;211.90;93.23;;;;;;;;;;5089427;28;20594;-72
2021/12/23 06:45:15;;;;;;;174.10;63.10;;;;;;;;;;5086914;28;20697;-72
2021/12/23 06:47:44;;;;;;;157.63;60.50;;;;;;;;;;5091010;28;20269;-74
2021/12/23 06:50:12;;;;;;;145.73;60.17;;;;;;;;;;5088270;28;20234;-72
2021/12/23 06:52:40;;;;;;;146.27;59.13;;;;;;;;;;5094102;28;20238;-72
2021/12/23 06:55:10;;;;;;;142.67;52.77;;;;;;;;;;5087658;28;20238;-72
2021/12/23 06:57:39;;;;;;;134.77;53.43;;;;;;;;;;5091205;28;20777;-71
2021/12/23 07:00:10;;;;;;;131.73;55.57;;;;;;;;;;5091550;28;20257;-72
2021/12/23 07:02:40;;;;;;;156.27;61.77;;;;;;;;;;5075323;28;20234;-70
2021/12/23 07:05:12;;;;;;;164.57;59.63;;;;;;;;;;5096811;28;20321;-69
2021/12/23 07:10:24;;;;;;;113.53;49.53;;;;;;;;;;5093459;28;20234;-73
2021/12/23 07:12:51;;;;;;;139.43;55.70;;;;;;;;;;5089262;28;20231;-71
2021/12/23 07:15:19;;;;;;;121.73;49.27;;;;;;;;;;5091910;28;20237;-73
2021/12/23 07:17:47;;;;;;;113.37;48.57;;;;;;;;;;5088271;28;20238;-73
2021/12/23 07:20:14;;;;;;;102.33;43.90;;;;;;;;;;5092543;28;20239;-72
2021/12/23 07:22:41;;;;;;;115.70;47.73;;;;;;;;;;5090775;28;20229;-72
2021/12/23 07:25:09;;;;;;;101.07;47.63;;;;;;;;;;5092836;28;20303;-71
2021/12/23 07:27:37;;;;;;;175.13;60.40;;;;;;;;;;5092477;28;20253;-71
2021/12/23 07:30:05;;;;;;;97.37;45.63;;;;;;;;;;5092102;28;20238;-72
2021/12/23 07:32:32;;;;;;;126.93;62.47;;;;;;;;;;5090761;28;20222;-71
2021/12/23 07:34:59;;;;;;;144.97;56.30;;;;;;;;;;5092475;28;20227;-71
2021/12/23 07:37:27;;;;;;;191.23;63.47;;;;;;;;;;5090521;28;20222;-72
2021/12/23 07:39:55;;;;;;;195.57;71.97;;;;;;;;;;5093242;28;20234;-70
2021/12/23 07:42:31;;;;;;;159.23;54.60;;;;;;;;;;5073832;28;20260;-73
2021/12/23 07:45:01;;;;;;;121.80;49.80;;;;;;;;;;5088285;28;20235;-71
2021/12/23 07:47:30;;;;;;;141.13;52.97;;;;;;;;;;5093218;28;20266;-72
2021/12/23 07:49:57;;;;;;;144.57;63.30;;;;;;;;;;5092321;28;20234;-71
2021/12/23 07:52:25;;;;;;;100.03;52.83;;;;;;;;;;5093123;28;20251;-72
2021/12/23 07:54:52;;;;;;;155.27;54.33;;;;;;;;;;5093019;28;20700;-71
2021/12/23 07:57:19;;;;;;;118.33;48.87;;;;;;;;;;5092841;28;20288;-72
2021/12/23 07:59:47;;;;;;;161.43;57.57;;;;;;;;;;5093318;28;20235;-71
2021/12/23 08:02:16;;;;;;;111.30;45.97;;;;;;;;;;5097154;28;20238;-72
2021/12/23 08:04:46;;;;;;;132.07;54.03;;;;;;;;;;5062415;28;20227;-71
2021/12/23 08:07:14;;;;;;;161.60;66.67;;;;;;;;;;5095910;28;20251;-70
2021/12/23 08:09:41;;;;;;;100.73;45.30;;;;;;;;;;5095961;28;20248;-72
2021/12/23 08:12:10;;;;;;;151.80;60.60;;;;;;;;;;5094845;28;21125;-71
2021/12/23 08:14:37;;;;;;;132.93;48.17;;;;;;;;;;5090548;28;20230;-70
2021/12/23 08:17:24;;;;;;;122.23;47.70;;;;;;;;;;5090097;28;20230;-71
2021/12/23 08:19:52;;;;;;;91.63;40.77;;;;;;;;;;5091670;28;20268;-70
2021/12/23 08:22:19;;;;;;;125.97;49.13;;;;;;;;;;5091486;28;20231;-71
2021/12/23 08:24:46;;;;;;;127.20;48.90;;;;;;;;;;5089232;28;20227;-71
2021/12/23 08:27:14;;;;;;;107.37;43.90;;;;;;;;;;5089057;28;20247;-70
2021/12/23 08:29:41;;;;;;;88.30;40.33;;;;;;;;;;5092788;28;20246;-71
2021/12/23 08:32:08;;;;;;;101.40;43.23;;;;;;;;;;5092003;28;20284;-72
2021/12/23 08:34:37;;;;;;;113.60;62.00;;;;;;;;;;5092105;28;20586;-73
2021/12/23 08:37:07;;;;;;;117.37;54.37;;;;;;;;;;5074456;28;20230;-75
2021/12/23 08:39:34;;;;;;;98.70;44.93;;;;;;;;;;5092204;28;20260;-74
2021/12/23 08:42:01;;;;;;;97.83;46.90;;;;;;;;;;5092621;28;20612;-73
2021/12/23 08:44:29;;;;;;;88.20;49.20;;;;;;;;;;5091642;28;20258;-73
2021/12/23 08:46:56;;;;;;;90.20;45.70;;;;;;;;;;5092080;28;20249;-73
2021/12/23 08:49:24;;;;;;;80.30;46.77;;;;;;;;;;5089756;28;20237;-72
2021/12/23 08:51:52;;;;;;;78.10;38.60;;;;;;;;;;5085964;28;20300;-75
2021/12/23 08:54:19;;;;;;;74.67;34.83;;;;;;;;;;5073633;28;20231;-72
2021/12/23 08:56:46;;;;;;;92.67;40.87;;;;;;;;;;5074325;28;20215;-72
2021/12/23 08:59:14;;;;;;;80.63;37.93;;;;;;;;;;5073764;28;20223;-71
2021/12/23 09:01:42;;;;;;;67.53;33.73;;;;;;;;;;5082613;28;21135;-70
2021/12/23 09:04:10;;;;;;;74.23;35.80;;;;;;;;;;5090753;28;20297;-71
2021/12/23 09:06:37;;;;;;;77.20;35.50;;;;;;;;;;5091450;28;20269;-72
2021/12/23 09:09:05;;;;;;;70.60;34.87;;;;;;;;;;5088489;28;20238;-71
2021/12/23 09:11:34;;;;;;;72.73;33.10;;;;;;;;;;5093039;28;20302;-71
2021/12/23 09:14:01;;;;;;;70.20;32.73;;;;;;;;;;5091760;28;20221;-72
2021/12/23 09:16:29;;;;;;;68.87;33.33;;;;;;;;;;5082255;28;20214;-72
2021/12/23 09:18:56;;;;;;;68.07;33.60;;;;;;;;;;5078594;28;20216;-70
2021/12/23 09:21:23;;;;;;;70.83;32.80;;;;;;;;;;5073496;28;20211;-72
2021/12/23 09:24:01;;;;;;;69.47;31.80;;;;;;;;;;5072718;28;20207;-72
2021/12/23 09:26:30;;;;;;;82.77;42.77;;;;;;;;;;5072167;28;20250;-73
2021/12/23 09:29:09;;;;;;;114.20;45.60;;;;;;;;;;5117400;27;20631;-73
2021/12/23 09:34:18;;;;;;;77.17;33.43;;;;;;;;;;5092851;28;20677;-72
2021/12/23 09:36:45;;;;;;;69.27;32.23;;;;;;;;;;5092179;28;20210;-69
2021/12/23 09:39:13;;;;;;;68.00;33.03;;;;;;;;;;5093143;28;20210;-72
2021/12/23 09:41:45;;;;;;;68.30;31.90;;;;;;;;;;5087593;28;20215;-71
2021/12/23 09:44:14;;;;;;;62.37;29.87;;;;;;;;;;5090207;28;20268;-71
2021/12/23 09:46:42;;;;;;;73.07;33.67;;;;;;;;;;5087916;28;20559;-73
2021/12/23 09:49:09;;;;;;;65.20;33.13;;;;;;;;;;5090738;28;20214;-72
2021/12/23 09:51:37;;;;;;;74.60;33.80;;;;;;;;;;5087285;28;20264;-73
2021/12/23 09:54:08;;;;;;;77.17;36.70;;;;;;;;;;5091092;28;20214;-72
2021/12/23 09:56:36;;;;;;;136.53;45.17;;;;;;;;;;5091040;28;20256;-73
2021/12/23 09:59:07;;;;;;;68.57;31.67;;;;;;;;;;5085791;28;20658;-71
2021/12/23 10:01:35;;;;;;;72.47;35.03;;;;;;;;;;5089495;28;20206;-72
2021/12/23 10:04:04;;;;;;;72.83;34.70;;;;;;;;;;5087575;28;20213;-73
2021/12/23 10:06:32;;;;;;;65.90;30.60;;;;;;;;;;5090193;28;20238;-72
2021/12/23 10:09:00;;;;;;;61.30;29.57;;;;;;;;;;5057941;28;20211;-71
2021/12/23 10:31:06;;;;;;;54.37;27.10;;;;;;;;;;5118532;27;20249;-71
2021/12/23 10:33:49;;;;;;;49.67;25.90;;;;;;;;;;5077667;28;20211;-71
2021/12/23 10:39:06;;;;;;;54.83;26.23;;;;;;;;;;5076655;28;20269;-71
2021/12/23 10:41:33;;;;;;;55.83;26.93;;;;;;;;;;5076723;28;20294;-71
2021/12/23 10:44:03;;;;;;;46.13;24.57;;;;;;;;;;5074837;28;20672;-71
2021/12/23 10:46:35;;;;;;;55.67;27.00;;;;;;;;;;5058689;28;20685;-71
2021/12/23 11:00:38;;;;;;;48.43;23.90;;;;;;;;;;5093506;28;20753;-71
2021/12/23 11:03:16;;;;;;;55.30;24.97;;;;;;;;;;5103739;27;20632;-71
2021/12/23 11:05:53;;;;;;;46.50;24.97;;;;;;;;;;5093594;28;20213;-71
2021/12/23 11:28:34;;;;;;;53.27;26.33;;;;;;;;;;5091849;28;20226;-71
2021/12/23 11:43:53;;;;;;;50.93;24.67;;;;;;;;;;5074112;28;20300;-72
2021/12/23 11:46:29;;;;;;;50.83;27.23;;;;;;;;;;5075051;28;20573;-72
2021/12/23 11:49:00;;;;;;;67.97;27.23;;;;;;;;;;5085954;28;20283;-70
2021/12/23 11:51:33;;;;;;;44.07;24.27;;;;;;;;;;5074593;28;20672;-70
2021/12/23 11:54:03;;;;;;;47.43;26.43;;;;;;;;;;5080134;28;20238;-71
2021/12/23 11:56:32;;;;;;;49.70;25.43;;;;;;;;;;5075542;28;20264;-70
2021/12/23 11:59:01;;;;;;;51.43;25.57;;;;;;;;;;5075443;28;20269;-70
2021/12/23 12:01:32;;;;;;;50.13;25.17;;;;;;;;;;5074003;28;20562;-70
2021/12/23 12:04:02;;;;;;;52.53;25.43;;;;;;;;;;5074265;28;20204;-71
2021/12/23 12:06:45;;;;;;;52.30;26.63;;;;;;;;;;5087596;28;20214;-71
2021/12/23 12:09:27;;;;;;;51.27;26.10;;;;;;;;;;5074912;28;20217;-70
2021/12/23 12:12:11;;;;;;;47.77;25.13;;;;;;;;;;5084172;28;20211;-70
2021/12/23 12:14:39;;;;;;;47.33;24.97;;;;;;;;;;5074808;28;20207;-71
2021/12/23 12:17:23;;;;;;;58.33;27.23;;;;;;;;;;5074930;28;20246;-71
2021/12/23 12:20:07;;;;;;;59.13;26.90;;;;;;;;;;5075029;28;20290;-70
2021/12/23 12:22:49;;;;;;;47.10;25.33;;;;;;;;;;5074500;28;20210;-71
2021/12/23 12:25:23;;;;;;;49.97;24.57;;;;;;;;;;5073503;28;20203;-70
2021/12/23 12:27:56;;;;;;;78.23;32.83;;;;;;;;;;5074755;28;20231;-71
2021/12/23 12:30:47;;;;;;;56.77;27.93;;;;;;;;;;5074559;28;20249;-71
2021/12/23 12:33:24;;;;;;;49.90;25.40;;;;;;;;;;5081029;28;20211;-72
2021/12/23 12:36:07;;;;;;;56.07;24.83;;;;;;;;;;5074742;28;20294;-71
2021/12/23 12:38:46;;;;;;;54.33;25.10;;;;;;;;;;5074715;28;20203;-70
2021/12/23 12:41:27;;;;;;;51.07;25.87;;;;;;;;;;5086419;28;20259;-70
2021/12/23 12:44:23;;;;;;;76.03;30.97;;;;;;;;;;5091084;28;20350;-72
2021/12/23 12:49:38;;;;;;;56.70;26.50;;;;;;;;;;5092525;28;20229;-72
2021/12/23 12:52:12;;;;;;;54.57;26.00;;;;;;;;;;5093185;28;20210;-71
2021/12/23 12:54:48;;;;;;;53.70;28.17;;;;;;;;;;5091877;28;20206;-72
2021/12/23 12:57:18;;;;;;;52.60;26.80;;;;;;;;;;5093173;28;20202;-71
2021/12/23 12:59:47;;;;;;;58.43;27.07;;;;;;;;;;5091643;28;20211;-71
2021/12/23 13:02:40;;;;;;;55.73;26.63;;;;;;;;;;5074537;28;20207;-72
2021/12/23 13:05:11;;;;;;;53.07;25.73;;;;;;;;;;5066135;28;20203;-70
2021/12/23 13:07:52;;;;;;;50.63;24.87;;;;;;;;;;5085214;28;20325;-72
2021/12/23 13:10:33;;;;;;;50.73;24.33;;;;;;;;;;5072467;28;20214;-72
2021/12/23 13:13:32;;;;;;;53.90;26.93;;;;;;;;;;5073770;28;20222;-72
2021/12/23 13:16:17;;;;;;;69.10;32.40;;;;;;;;;;5073903;28;20666;-70
2021/12/23 13:18:44;;;;;;;61.90;28.30;;;;;;;;;;5082312;28;20666;-70
2021/12/23 13:21:18;;;;;;;63.83;29.00;;;;;;;;;;5068271;28;20403;-71
2021/12/23 13:23:47;;;;;;;54.43;26.70;;;;;;;;;;5090220;28;20579;-71
2021/12/23 13:26:18;;;;;;;48.10;24.93;;;;;;;;;;5085399;28;20297;-71
2021/12/23 13:28:48;;;;;;;54.00;24.97;;;;;;;;;;5079690;28;20345;-71
2021/12/23 13:31:18;;;;;;;49.53;24.17;;;;;;;;;;5084112;28;20207;-71
2021/12/23 13:34:12;;;;;;;52.63;25.30;;;;;;;;;;5073678;28;20223;-71
2021/12/23 13:36:44;;;;;;;46.83;22.70;;;;;;;;;;5072087;28;20546;-70
2021/12/23 13:39:21;;;;;;;53.13;25.07;;;;;;;;;;5074647;28;20839;-72
2021/12/23 13:41:59;;;;;;;53.40;26.83;;;;;;;;;;5083008;28;20234;-72
2021/12/23 13:44:29;;;;;;;50.23;25.10;;;;;;;;;;5081187;28;20254;-71
2021/12/23 13:47:25;;;;;;;58.83;27.93;;;;;;;;;;5084581;28;20360;-70
2021/12/23 13:49:55;;;;;;;64.93;29.00;;;;;;;;;;5089275;28;20852;-72
2021/12/23 13:52:31;;;;;;;58.73;26.80;;;;;;;;;;5087691;28;20329;-72
2021/12/23 13:55:01;;;;;;;52.13;26.00;;;;;;;;;;5049370;28;20235;-71
2021/12/23 13:57:32;;;;;;;59.50;29.87;;;;;;;;;;5071061;28;20306;-73
2021/12/23 14:00:00;;;;;;;48.77;25.83;;;;;;;;;;5085496;27;20233;-73
2021/12/23 14:02:38;;;;;;;52.50;25.30;;;;;;;;;;5078809;28;20238;-74
2021/12/23 14:05:10;;;;;;;55.00;26.60;;;;;;;;;;5088500;27;20311;-73
2021/12/23 14:07:41;;;;;;;51.97;25.63;;;;;;;;;;5037899;28;20326;-71
2021/12/23 14:10:14;;;;;;;57.93;26.63;;;;;;;;;;5072997;28;20317;-74
2021/12/23 14:13:12;;;;;;;51.07;25.50;;;;;;;;;;5052351;28;20284;-74
2021/12/23 14:15:54;;;;;;;57.13;27.80;;;;;;;;;;5068612;28;20238;-76
2021/12/23 14:24:02;;;;;;;52.90;24.73;;;;;;;;;;5076299;28;20267;-72
2021/12/23 14:26:30;;;;;;;56.70;26.47;;;;;;;;;;5078399;28;20239;-73
2021/12/23 14:29:03;;;;;;;54.40;25.73;;;;;;;;;;5075098;28;20253;-72
2021/12/23 14:31:33;;;;;;;55.03;27.37;;;;;;;;;;5085148;28;20310;-73
2021/12/23 14:34:03;;;;;;;59.50;28.23;;;;;;;;;;5090275;28;20230;-71
2021/12/23 14:36:50;;;;;;;53.43;26.83;;;;;;;;;;5078850;28;20230;-71
2021/12/23 14:39:26;;;;;;;61.73;28.17;;;;;;;;;;5079969;28;20639;-70
2021/12/23 14:42:16;;;;;;;56.47;26.57;;;;;;;;;;5074692;28;20231;-72
2021/12/23 14:44:45;;;;;;;47.77;24.33;;;;;;;;;;5076434;28;20227;-75
2021/12/23 14:47:17;;;;;;;49.37;24.73;;;;;;;;;;5075891;28;20232;-70
2021/12/23 14:52:32;;;;;;;63.40;31.97;;;;;;;;;;5075697;28;20258;-71
2021/12/23 14:55:08;;;;;;;81.57;28.83;;;;;;;;;;5080384;28;20256;-67
2021/12/23 14:57:37;;;;;;;70.20;30.47;;;;;;;;;;5075845;28;20231;-67
2021/12/23 15:00:14;;;;;;;64.03;28.80;;;;;;;;;;5077010;28;20235;-72
2021/12/23 15:02:43;;;;;;;152.23;58.47;;;;;;;;;;5078171;28;20313;-73
2021/12/23 15:05:17;;;;;;;253.53;106.13;;;;;;;;;;5096686;28;20269;-75
2021/12/23 15:07:45;;;;;;;69.73;37.40;;;;;;;;;;5095994;28;20275;-75
2021/12/23 15:10:13;;;;;;;63.37;28.80;;;;;;;;;;5096000;28;20234;-79
2021/12/23 15:12:40;;;;;;;56.97;30.57;;;;;;;;;;5095277;28;20717;-79
2021/12/23 15:15:09;;;;;;;56.33;28.43;;;;;;;;;;5096212;28;20252;-74
2021/12/23 15:17:53;;;;;;;60.63;29.83;;;;;;;;;;5077461;28;20242;-79
2021/12/23 15:20:29;;;;;;;49.57;25.43;;;;;;;;;;5094877;28;20712;-78
2021/12/23 15:23:03;;;;;;;86.30;34.43;;;;;;;;;;5092825;28;20234;-78
2021/12/23 15:25:40;;;;;;;69.93;30.97;;;;;;;;;;5092892;28;20251;-76
2021/12/23 15:28:11;;;;;;;68.77;30.17;;;;;;;;;;5094515;28;20253;-73
2021/12/23 15:30:43;;;;;;;53.17;27.27;;;;;;;;;;5076758;28;20242;-75
2021/12/23 15:33:12;;;;;;;60.77;29.60;;;;;;;;;;5092061;28;20309;-76
2021/12/23 15:35:40;;;;;;;56.47;28.00;;;;;;;;;;5094575;28;20235;-77
2021/12/23 15:38:08;;;;;;;54.30;27.63;;;;;;;;;;5093567;28;20258;-74
2021/12/23 15:40:37;;;;;;;53.90;26.73;;;;;;;;;;5093274;28;20321;-78
2021/12/23 15:43:08;;;;;;;52.77;26.30;;;;;;;;;;5093244;28;20621;-76
2021/12/23 15:45:39;;;;;;;53.00;26.97;;;;;;;;;;5094413;28;20254;-79
2021/12/23 15:48:08;;;;;;;56.47;27.33;;;;;;;;;;5093480;28;20778;-76
2021/12/23 15:50:37;;;;;;;56.27;27.83;;;;;;;;;;5094093;28;20284;-79
2021/12/23 15:53:06;;;;;;;62.87;29.90;;;;;;;;;;5092556;28;20281;-76
2021/12/23 15:55:34;;;;;;;80.47;33.87;;;;;;;;;;5090507;28;20325;-75
2021/12/23 15:58:02;;;;;;;112.13;40.93;;;;;;;;;;5092175;28;20739;-74
2021/12/23 16:00:29;;;;;;;56.83;28.00;;;;;;;;;;5094242;28;20234;-75